Time;durP1;ratioP1;P1;durP2;ratioP2;P2;SDS_P1;SDS_P2;PMS_P1;PMS_P2;Temp;Humidity;BMP_temperature;BMP_pressure;BME280_temperature;BME280_humidity;BME280_pressure;Samples;Min_cycle;Max_cycle;Signal;HPM_P1;HPM_P2
2021/05/05 00:01:58;;;;;;;1.40;1.00;;;8.70;99.70;;;;;;5031193;28;20449;-63
2021/05/05 00:04:24;;;;;;;2.07;1.10;;;8.60;99.70;;;;;;5030280;28;20444;-62
2021/05/05 00:06:51;;;;;;;2.13;1.13;;;8.70;99.70;;;;;;5030880;28;20495;-61
2021/05/05 00:09:18;;;;;;;1.30;0.90;;;8.70;99.70;;;;;;5030862;28;20460;-57
2021/05/05 00:11:44;;;;;;;1.97;1.00;;;8.60;99.70;;;;;;5031438;28;20827;-58
2021/05/05 00:14:12;;;;;;;1.50;1.00;;;8.40;99.70;;;;;;5049402;28;20452;-59
2021/05/05 00:16:38;;;;;;;1.20;0.90;;;8.40;99.70;;;;;;5050287;28;20830;-63
2021/05/05 00:19:05;;;;;;;1.20;0.90;;;8.40;99.70;;;;;;5050236;28;20474;-63
2021/05/05 00:21:32;;;;;;;1.90;1.00;;;8.40;99.70;;;;;;5049829;28;20498;-61
2021/05/05 00:23:58;;;;;;;1.30;1.00;;;8.40;99.70;;;;;;5049828;28;20451;-64
2021/05/05 00:26:26;;;;;;;1.30;0.97;;;8.40;99.70;;;;;;5042147;28;20860;-61
2021/05/05 00:28:52;;;;;;;1.50;1.10;;;8.40;99.70;;;;;;5030027;28;20472;-65
2021/05/05 00:31:18;;;;;;;1.20;0.80;;;8.20;99.70;;;;;;5029736;28;20452;-64
2021/05/05 00:33:45;;;;;;;1.20;0.90;;;8.10;99.70;;;;;;5029779;28;20448;-62
2021/05/05 00:36:12;;;;;;;2.77;0.93;;;8.20;99.70;;;;;;5029825;28;20452;-63
2021/05/05 00:38:38;;;;;;;1.20;0.90;;;8.20;99.70;;;;;;5030059;28;20473;-61
2021/05/05 00:41:07;;;;;;;1.20;0.90;;;8.40;99.70;;;;;;5043962;28;20469;-63
2021/05/05 00:43:34;;;;;;;2.03;1.33;;;8.30;99.70;;;;;;5049398;28;20534;-65
2021/05/05 00:46:00;;;;;;;2.70;0.90;;;8.30;99.70;;;;;;5052751;28;20842;-62
2021/05/05 00:48:26;;;;;;;1.33;0.93;;;8.30;99.70;;;;;;5053744;28;20469;-63
2021/05/05 00:50:53;;;;;;;1.60;1.00;;;8.10;99.70;;;;;;5053921;28;20638;-63
2021/05/05 00:53:19;;;;;;;1.30;1.00;;;8.20;99.70;;;;;;5052049;28;20821;-61
2021/05/05 00:55:45;;;;;;;1.30;0.90;;;8.40;99.70;;;;;;5033631;28;20871;-63
2021/05/05 00:58:12;;;;;;;3.40;1.00;;;8.60;99.70;;;;;;5033473;28;20464;-60
2021/05/05 01:00:39;;;;;;;1.20;0.87;;;8.40;99.70;;;;;;5033717;28;20444;-62
2021/05/05 01:03:05;;;;;;;1.70;1.10;;;8.40;99.70;;;;;;5033388;28;20943;-63
2021/05/05 01:05:31;;;;;;;1.40;1.00;;;8.60;99.70;;;;;;5032821;28;20491;-61
2021/05/05 01:07:57;;;;;;;1.43;0.90;;;8.40;99.70;;;;;;5041136;28;20478;-62
2021/05/05 01:10:24;;;;;;;1.30;1.07;;;8.10;99.70;;;;;;5053165;28;20505;-60
2021/05/05 01:12:50;;;;;;;2.07;1.07;;;8.10;99.70;;;;;;5053118;28;20451;-60
2021/05/05 01:15:17;;;;;;;1.60;0.90;;;8.00;99.70;;;;;;5052241;28;20448;-61
2021/05/05 01:17:45;;;;;;;1.63;1.00;;;8.00;99.70;;;;;;5047444;28;20499;-66
2021/05/05 01:20:13;;;;;;;1.53;1.00;;;8.00;99.70;;;;;;5033237;28;20831;-59
2021/05/05 01:22:41;;;;;;;1.30;0.90;;;8.10;99.70;;;;;;5032807;28;20457;-61
2021/05/05 01:25:09;;;;;;;1.87;1.10;;;8.00;99.70;;;;;;5033177;28;20444;-63
2021/05/05 01:27:36;;;;;;;1.30;1.00;;;8.00;99.70;;;;;;5036611;28;20479;-63
2021/05/05 01:30:03;;;;;;;1.40;1.00;;;8.00;99.70;;;;;;5053150;28;20455;-63
2021/05/05 01:32:29;;;;;;;1.30;1.00;;;8.00;99.70;;;;;;5052804;28;20451;-61
2021/05/05 01:34:56;;;;;;;1.20;0.80;;;8.10;99.70;;;;;;5052873;28;20450;-61
2021/05/05 01:37:22;;;;;;;2.27;1.30;;;8.10;99.70;;;;;;5050323;28;20443;-60
2021/05/05 01:39:49;;;;;;;1.60;1.10;;;8.20;99.70;;;;;;5032694;28;20475;-62
2021/05/05 01:42:15;;;;;;;1.80;1.27;;;8.20;99.70;;;;;;5032798;28;20475;-61
2021/05/05 01:44:41;;;;;;;1.93;1.10;;;8.00;99.70;;;;;;5032355;28;20452;-60
2021/05/05 01:47:11;;;;;;;1.40;1.13;;;8.00;99.70;;;;;;5045852;28;20484;-63
2021/05/05 01:49:42;;;;;;;1.27;1.00;;;7.90;99.70;;;;;;5052431;28;20463;-62
2021/05/05 01:52:09;;;;;;;1.30;1.00;;;7.90;99.70;;;;;;5052205;28;20448;-63
2021/05/05 01:54:36;;;;;;;1.47;1.20;;;7.90;99.70;;;;;;5052056;28;20834;-62
2021/05/05 01:57:22;;;;;;;1.23;0.97;;;8.20;99.70;;;;;;5039582;28;20498;-59
2021/05/05 01:59:49;;;;;;;1.20;0.97;;;8.20;99.70;;;;;;5032291;28;20456;-63
2021/05/05 02:02:15;;;;;;;1.43;0.93;;;8.30;99.70;;;;;;5033628;28;20451;-60
2021/05/05 02:04:41;;;;;;;1.20;0.90;;;8.40;99.70;;;;;;5032121;28;20440;-60
2021/05/05 02:07:08;;;;;;;1.30;1.00;;;8.30;99.70;;;;;;5044658;28;20854;-61
2021/05/05 02:09:34;;;;;;;1.37;0.97;;;8.30;99.70;;;;;;5052433;28;20464;-60
2021/05/05 02:12:00;;;;;;;1.20;0.90;;;8.40;99.70;;;;;;5052316;28;20788;-60
2021/05/05 02:14:27;;;;;;;1.30;1.00;;;8.20;99.70;;;;;;5051600;28;20470;-62
2021/05/05 02:16:55;;;;;;;1.20;0.90;;;8.00;99.70;;;;;;5041145;28;20440;-63
2021/05/05 02:19:21;;;;;;;1.43;1.00;;;7.90;99.70;;;;;;5032424;28;20493;-60
2021/05/05 02:21:47;;;;;;;1.20;0.90;;;7.80;99.70;;;;;;5029978;28;20444;-63
2021/05/05 02:24:13;;;;;;;1.20;0.90;;;7.70;99.70;;;;;;5063441;22;21011;-70
2021/05/05 02:26:40;;;;;;;2.37;0.90;;;7.60;99.70;;;;;;5031662;28;20507;-69
2021/05/05 02:29:06;;;;;;;1.20;1.07;;;7.70;99.70;;;;;;5031844;28;20453;-70
2021/05/05 02:31:34;;;;;;;1.80;1.17;;;7.80;99.70;;;;;;5031913;28;20449;-70
2021/05/05 02:34:00;;;;;;;1.20;0.90;;;7.80;99.70;;;;;;5031275;28;20848;-70
2021/05/05 02:36:29;;;;;;;1.30;1.00;;;7.70;99.70;;;;;;5031636;28;20485;-70
2021/05/05 02:38:55;;;;;;;1.40;1.10;;;7.70;99.70;;;;;;5031549;28;20441;-70
2021/05/05 02:41:21;;;;;;;1.30;1.00;;;7.60;99.70;;;;;;5031873;28;20451;-70
2021/05/05 02:43:47;;;;;;;1.20;1.00;;;7.60;99.70;;;;;;5031143;28;20890;-70
2021/05/05 02:46:14;;;;;;;1.20;0.90;;;7.60;99.70;;;;;;5031701;28;20861;-70
2021/05/05 02:48:41;;;;;;;1.30;1.00;;;7.60;99.70;;;;;;5031912;28;20448;-70
2021/05/05 02:51:07;;;;;;;1.40;0.90;;;7.60;99.70;;;;;;5031433;28;20469;-70
2021/05/05 02:53:33;;;;;;;1.20;0.90;;;7.60;99.70;;;;;;5031195;28;20469;-70
2021/05/05 02:55:59;;;;;;;1.20;0.80;;;7.80;99.70;;;;;;5031025;28;20449;-70
2021/05/05 02:58:26;;;;;;;1.30;1.10;;;7.80;99.70;;;;;;5031448;28;20445;-70
2021/05/05 03:00:52;;;;;;;1.83;1.00;;;7.80;99.70;;;;;;5031217;28;21067;-70
2021/05/05 03:03:18;;;;;;;1.73;1.00;;;7.90;99.70;;;;;;5031041;28;20898;-70
2021/05/05 03:05:45;;;;;;;1.20;0.90;;;7.90;99.70;;;;;;5030789;28;20456;-70
2021/05/05 03:08:13;;;;;;;3.43;1.27;;;7.90;99.70;;;;;;5030260;28;20448;-70
2021/05/05 03:10:39;;;;;;;1.77;0.90;;;7.80;99.70;;;;;;5031232;28;20449;-70
2021/05/05 03:13:06;;;;;;;1.40;1.00;;;8.10;99.70;;;;;;5030411;28;20839;-70
2021/05/05 03:15:32;;;;;;;1.30;0.93;;;8.20;99.70;;;;;;5030285;28;20451;-70
2021/05/05 03:17:58;;;;;;;1.30;0.90;;;8.10;99.70;;;;;;5030648;28;20449;-70
2021/05/05 03:20:25;;;;;;;1.40;0.90;;;8.00;99.70;;;;;;5031076;28;20445;-70
2021/05/05 03:22:52;;;;;;;1.50;0.90;;;8.10;99.70;;;;;;5029946;28;20448;-70
2021/05/05 03:25:18;;;;;;;1.40;1.23;;;8.10;99.70;;;;;;5030818;28;20468;-71
2021/05/05 03:27:44;;;;;;;1.30;0.93;;;7.90;99.70;;;;;;5030579;28;20488;-70
2021/05/05 03:30:11;;;;;;;1.20;0.90;;;8.10;99.70;;;;;;5030866;28;20457;-71
2021/05/05 03:32:38;;;;;;;1.20;0.90;;;8.20;99.70;;;;;;5030312;28;20445;-70
2021/05/05 03:35:05;;;;;;;1.20;0.90;;;8.00;99.70;;;;;;5030590;28;20472;-70
2021/05/05 03:37:32;;;;;;;1.50;0.93;;;8.00;99.70;;;;;;5030839;28;20455;-70
2021/05/05 03:39:59;;;;;;;1.20;0.90;;;7.90;99.70;;;;;;5030395;28;20444;-70
2021/05/05 03:42:25;;;;;;;1.30;0.90;;;8.00;99.70;;;;;;5030595;28;20449;-70
2021/05/05 03:44:52;;;;;;;1.20;0.80;;;8.20;99.70;;;;;;5030233;28;20461;-70
2021/05/05 03:47:18;;;;;;;1.20;0.90;;;8.20;99.70;;;;;;5030646;28;20961;-70
2021/05/05 03:49:44;;;;;;;1.30;0.90;;;8.00;99.70;;;;;;5030057;28;20448;-70
2021/05/05 03:52:10;;;;;;;1.20;0.90;;;7.90;99.70;;;;;;5030599;28;20459;-70
2021/05/05 03:54:36;;;;;;;1.20;0.90;;;7.90;99.70;;;;;;5030170;28;20472;-70
2021/05/05 03:57:04;;;;;;;1.20;0.97;;;8.10;99.70;;;;;;5030260;28;20441;-69
2021/05/05 03:59:30;;;;;;;2.37;1.00;;;7.90;99.70;;;;;;5029964;28;20827;-68
2021/05/05 04:01:56;;;;;;;1.60;1.00;;;8.10;99.70;;;;;;5030115;28;20896;-69
2021/05/05 04:04:22;;;;;;;1.40;1.00;;;8.00;99.70;;;;;;5029985;28;20496;-69
2021/05/05 04:06:48;;;;;;;1.20;0.90;;;7.90;99.70;;;;;;5029961;28;20522;-68
2021/05/05 04:09:14;;;;;;;1.47;1.17;;;7.80;99.70;;;;;;5030018;28;20453;-69
2021/05/05 04:11:41;;;;;;;1.33;1.10;;;7.60;99.70;;;;;;5030268;28;20449;-69
2021/05/05 04:14:08;;;;;;;1.30;1.00;;;7.60;99.70;;;;;;5024859;28;20460;-70
2021/05/05 04:16:35;;;;;;;1.70;1.30;;;7.80;99.70;;;;;;5024101;28;20445;-69
2021/05/05 04:19:02;;;;;;;2.07;1.30;;;7.70;99.70;;;;;;5024666;28;20971;-69
2021/05/05 04:21:28;;;;;;;1.53;1.30;;;7.50;99.70;;;;;;5029030;28;20441;-69
2021/05/05 04:23:54;;;;;;;1.90;1.20;;;7.70;99.70;;;;;;5029469;28;20480;-68
2021/05/05 04:26:21;;;;;;;2.03;1.27;;;7.70;99.70;;;;;;5029626;28;20645;-69
2021/05/05 04:28:48;;;;;;;1.83;1.10;;;7.70;99.70;;;;;;5029877;28;20453;-70
2021/05/05 04:31:16;;;;;;;1.43;1.10;;;7.60;99.70;;;;;;5029782;28;20973;-68
2021/05/05 04:33:45;;;;;;;3.30;1.20;;;7.60;99.70;;;;;;5023017;28;20692;-69
2021/05/05 04:36:11;;;;;;;1.40;1.00;;;7.50;99.70;;;;;;5023181;28;20441;-69
2021/05/05 04:38:38;;;;;;;1.30;0.90;;;7.70;99.70;;;;;;5023647;28;20477;-69
2021/05/05 04:41:04;;;;;;;1.87;1.00;;;7.90;99.70;;;;;;5026412;28;20459;-69
2021/05/05 04:43:30;;;;;;;1.33;1.00;;;7.90;99.70;;;;;;5029837;28;20464;-69
2021/05/05 04:45:56;;;;;;;1.20;0.80;;;7.60;99.70;;;;;;5029937;28;20485;-68
2021/05/05 04:48:23;;;;;;;1.50;1.10;;;7.50;99.70;;;;;;5029394;28;20452;-69
2021/05/05 04:50:49;;;;;;;1.27;0.90;;;7.50;99.70;;;;;;5029665;28;20445;-69
2021/05/05 04:53:16;;;;;;;1.20;0.90;;;7.70;99.70;;;;;;5029276;28;20437;-69
2021/05/05 04:55:42;;;;;;;1.20;0.83;;;7.60;99.70;;;;;;5029445;28;20982;-69
2021/05/05 04:58:08;;;;;;;1.90;1.00;;;7.80;99.70;;;;;;5029335;28;20444;-69
2021/05/05 05:00:34;;;;;;;1.40;1.00;;;7.90;99.70;;;;;;5029378;28;20453;-68
2021/05/05 05:03:01;;;;;;;2.07;1.50;;;8.10;99.70;;;;;;5029399;28;20523;-69
2021/05/05 05:05:28;;;;;;;1.70;1.17;;;8.10;99.70;;;;;;5029064;28;20459;-68
2021/05/05 05:07:54;;;;;;;1.40;1.10;;;8.10;99.70;;;;;;5029546;28;20564;-70
2021/05/05 05:10:21;;;;;;;1.83;1.20;;;7.90;99.70;;;;;;5029198;28;20544;-69
2021/05/05 05:12:47;;;;;;;1.30;1.00;;;7.70;99.70;;;;;;5029512;28;20799;-68
2021/05/05 05:15:14;;;;;;;1.30;1.00;;;7.70;99.70;;;;;;5028056;28;20476;-69
2021/05/05 05:17:40;;;;;;;1.30;1.13;;;7.80;99.70;;;;;;5029476;28;20471;-69
2021/05/05 05:20:09;;;;;;;1.40;1.10;;;7.90;99.70;;;;;;5029106;28;20448;-69
2021/05/05 05:22:36;;;;;;;3.20;1.30;;;7.90;99.70;;;;;;5029362;28;20457;-68
2021/05/05 05:25:03;;;;;;;1.40;1.00;;;7.90;99.70;;;;;;5029002;28;20472;-70
2021/05/05 05:27:32;;;;;;;1.40;0.97;;;8.00;99.70;;;;;;5028874;28;20476;-69
2021/05/05 05:29:58;;;;;;;1.40;0.90;;;7.80;99.70;;;;;;5029390;28;20511;-69
2021/05/05 05:32:25;;;;;;;1.40;1.00;;;7.80;99.70;;;;;;5032174;28;20445;-70
2021/05/05 05:34:51;;;;;;;1.40;0.90;;;7.80;99.70;;;;;;5032376;28;21026;-70
2021/05/05 05:37:18;;;;;;;1.20;0.90;;;7.70;99.70;;;;;;5032851;28;20440;-70
2021/05/05 05:39:45;;;;;;;1.43;1.00;;;7.80;99.70;;;;;;5032770;28;20506;-70
2021/05/05 05:42:11;;;;;;;1.30;1.00;;;8.00;99.70;;;;;;5032940;28;20452;-70
2021/05/05 05:44:38;;;;;;;1.20;0.97;;;8.00;99.70;;;;;;5031857;28;20468;-70
2021/05/05 05:47:04;;;;;;;1.20;0.90;;;8.10;99.70;;;;;;5032697;28;21096;-69
2021/05/05 05:49:30;;;;;;;1.63;1.00;;;8.00;99.70;;;;;;5032209;28;20444;-69
2021/05/05 05:51:57;;;;;;;1.50;1.00;;;8.00;99.70;;;;;;5032688;28;20444;-70
2021/05/05 05:54:23;;;;;;;3.63;1.20;;;8.10;99.70;;;;;;5031886;28;20464;-71
2021/05/05 05:56:50;;;;;;;1.20;0.90;;;8.00;99.70;;;;;;5032528;28;20875;-70
2021/05/05 05:59:16;;;;;;;1.40;1.00;;;8.00;99.70;;;;;;5032323;28;20452;-70
2021/05/05 06:01:42;;;;;;;2.23;1.10;;;8.00;99.70;;;;;;5032242;28;20456;-70
2021/05/05 06:04:09;;;;;;;1.30;0.93;;;8.10;99.70;;;;;;5032197;28;20556;-69
2021/05/05 06:06:35;;;;;;;1.30;1.00;;;8.10;99.70;;;;;;5031922;28;20484;-71
2021/05/05 06:09:01;;;;;;;1.30;1.00;;;8.20;99.70;;;;;;5032392;28;20880;-69
2021/05/05 06:11:28;;;;;;;1.20;0.90;;;8.20;99.70;;;;;;5031881;28;20452;-71
2021/05/05 06:13:55;;;;;;;1.30;0.90;;;8.30;99.70;;;;;;5028430;28;20488;-70
2021/05/05 06:16:21;;;;;;;1.30;0.90;;;8.40;99.70;;;;;;5031147;28;20445;-69
2021/05/05 06:18:48;;;;;;;4.23;1.00;;;8.20;99.70;;;;;;5031139;28;20445;-70
2021/05/05 06:21:14;;;;;;;1.23;0.93;;;8.10;99.70;;;;;;5031477;28;20452;-71
2021/05/05 06:23:40;;;;;;;2.70;1.00;;;8.20;99.70;;;;;;5031040;28;20472;-72
2021/05/05 06:26:06;;;;;;;1.40;1.13;;;8.10;99.70;;;;;;5031921;28;20480;-69
2021/05/05 06:28:32;;;;;;;1.80;1.10;;;8.20;99.70;;;;;;5031531;28;20441;-68
2021/05/05 06:31:00;;;;;;;1.40;1.00;;;8.30;99.70;;;;;;5031260;28;20451;-71
2021/05/05 06:33:27;;;;;;;4.50;1.40;;;8.30;99.70;;;;;;5031341;28;20476;-69
2021/05/05 06:35:53;;;;;;;1.20;1.00;;;8.40;99.70;;;;;;5031352;28;20449;-69
2021/05/05 06:38:19;;;;;;;1.47;1.10;;;8.50;99.70;;;;;;5031547;28;20445;-70
2021/05/05 06:40:46;;;;;;;1.40;1.07;;;8.80;99.70;;;;;;5031341;28;20441;-69
2021/05/05 06:43:12;;;;;;;1.60;1.20;;;8.90;99.70;;;;;;5030633;28;20445;-69
2021/05/05 06:45:38;;;;;;;1.57;1.00;;;8.60;99.70;;;;;;5031385;28;21215;-69
2021/05/05 06:48:06;;;;;;;1.37;1.00;;;8.60;99.70;;;;;;5031165;28;20480;-69
2021/05/05 06:50:32;;;;;;;2.47;1.60;;;8.70;99.70;;;;;;5031332;28;20457;-69
2021/05/05 06:52:59;;;;;;;1.97;1.30;;;8.90;99.70;;;;;;5030525;28;20603;-68
2021/05/05 06:55:25;;;;;;;2.87;1.17;;;8.90;99.70;;;;;;5030792;28;20441;-70
2021/05/05 06:57:51;;;;;;;1.93;1.33;;;9.20;99.70;;;;;;5030500;28;20445;-69
2021/05/05 07:00:19;;;;;;;2.97;2.00;;;9.10;99.70;;;;;;5031239;28;20452;-70
2021/05/05 07:02:45;;;;;;;3.10;1.30;;;9.10;99.70;;;;;;5029556;28;20449;-69
2021/05/05 07:05:13;;;;;;;5.00;1.40;;;9.80;99.70;;;;;;5030234;28;20495;-69
2021/05/05 07:07:40;;;;;;;2.13;1.20;;;10.30;99.70;;;;;;5031132;28;20862;-70
2021/05/05 07:10:08;;;;;;;1.77;1.20;;;11.00;99.70;;;;;;5031073;28;20445;-69
2021/05/05 07:12:34;;;;;;;2.90;1.37;;;12.10;99.70;;;;;;5031067;28;20441;-70
2021/05/05 07:15:01;;;;;;;1.90;1.27;;;12.90;99.70;;;;;;5030074;28;20481;-69
2021/05/05 07:17:27;;;;;;;2.33;1.53;;;11.70;99.70;;;;;;5031243;28;20444;-69
2021/05/05 07:19:54;;;;;;;5.20;2.27;;;11.90;99.70;;;;;;5030547;28;20451;-69
2021/05/05 07:22:21;;;;;;;1.87;1.40;;;12.00;99.70;;;;;;5016177;28;20488;-69
2021/05/05 07:24:48;;;;;;;1.70;1.10;;;12.20;99.70;;;;;;5022532;28;20919;-69
2021/05/05 07:27:15;;;;;;;1.77;1.40;;;12.30;99.70;;;;;;5030378;28;20491;-69
2021/05/05 07:29:41;;;;;;;1.70;1.30;;;11.60;99.70;;;;;;5030774;28;20459;-69
2021/05/05 07:32:07;;;;;;;2.10;1.20;;;11.50;99.70;;;;;;5030909;28;20556;-69
2021/05/05 07:34:34;;;;;;;1.77;1.20;;;10.60;99.70;;;;;;5029691;28;20469;-69
2021/05/05 07:37:06;;;;;;;1.70;1.10;;;10.50;99.70;;;;;;5030606;28;20480;-69
2021/05/05 07:39:59;;;;;;;2.03;1.23;;;10.10;99.70;;;;;;5030240;28;20449;-69
2021/05/05 07:45:16;;;;;;;2.00;1.30;;;10.00;99.70;;;;;;5028499;28;20457;-69
2021/05/05 07:47:46;;;;;;;1.73;1.20;;;10.10;99.70;;;;;;5030241;28;20472;-68
2021/05/05 07:50:13;;;;;;;2.03;1.30;;;10.00;99.70;;;;;;5029826;28;20445;-67
2021/05/05 07:52:41;;;;;;;1.47;1.13;;;10.00;99.70;;;;;;5029790;28;20441;-68
2021/05/05 07:55:10;;;;;;;1.63;1.10;;;10.00;99.70;;;;;;5029447;28;20477;-67
2021/05/05 07:57:36;;;;;;;2.00;1.40;;;10.10;99.70;;;;;;5029763;28;20504;-68
2021/05/05 08:00:04;;;;;;;2.23;1.20;;;10.10;99.70;;;;;;5029676;28;20445;-68
2021/05/05 08:02:31;;;;;;;1.93;1.20;;;9.50;99.70;;;;;;5030693;28;20452;-68
2021/05/05 08:04:57;;;;;;;1.90;1.20;;;9.70;99.70;;;;;;5030447;28;20464;-68
2021/05/05 08:07:23;;;;;;;1.77;1.20;;;9.40;99.70;;;;;;5030529;28;20484;-68
2021/05/05 08:09:49;;;;;;;2.10;1.20;;;9.20;99.70;;;;;;5030611;28;20456;-68
2021/05/05 08:12:17;;;;;;;1.50;1.10;;;9.00;99.70;;;;;;5031202;28;20505;-68
2021/05/05 08:14:44;;;;;;;1.77;1.13;;;9.10;99.70;;;;;;5029694;28;20543;-68
2021/05/05 08:17:10;;;;;;;3.03;1.10;;;9.20;99.50;;;;;;5030994;28;20824;-68
2021/05/05 08:19:36;;;;;;;1.40;1.20;;;9.50;99.70;;;;;;5030167;28;20440;-68
2021/05/05 08:22:03;;;;;;;1.30;0.93;;;9.70;99.70;;;;;;5030345;28;20448;-68
2021/05/05 08:24:29;;;;;;;2.03;1.07;;;9.80;99.70;;;;;;5029904;28;20507;-68
2021/05/05 08:26:56;;;;;;;1.40;1.10;;;9.90;99.50;;;;;;5030170;28;20488;-68
2021/05/05 08:29:26;;;;;;;1.77;1.17;;;10.10;99.70;;;;;;5030455;28;20451;-68
2021/05/05 08:31:53;;;;;;;1.43;1.10;;;9.90;99.30;;;;;;5030585;28;20459;-68
2021/05/05 08:34:19;;;;;;;3.47;1.20;;;9.80;99.50;;;;;;5029646;28;20468;-68
2021/05/05 08:36:45;;;;;;;1.47;1.20;;;10.00;99.70;;;;;;5022980;28;20587;-68
2021/05/05 08:39:11;;;;;;;1.37;1.03;;;9.70;99.50;;;;;;5030393;28;20456;-68
2021/05/05 08:41:39;;;;;;;1.30;1.03;;;9.60;97.10;;;;;;5030915;28;20441;-67
2021/05/05 08:44:08;;;;;;;1.20;0.90;;;9.60;98.40;;;;;;5029986;28;20472;-67
2021/05/05 08:46:37;;;;;;;2.13;1.30;;;9.60;98.70;;;;;;5029489;28;20473;-68
2021/05/05 08:49:03;;;;;;;1.63;1.20;;;9.70;98.30;;;;;;5030146;28;20455;-67
2021/05/05 08:51:30;;;;;;;2.63;1.60;;;9.50;99.10;;;;;;5030717;28;20444;-68
2021/05/05 08:53:56;;;;;;;1.63;1.30;;;9.70;99.70;;;;;;5029799;28;21209;-67
2021/05/05 08:56:22;;;;;;;2.50;1.77;;;9.60;98.40;;;;;;5030021;28;20992;-68
2021/05/05 08:58:48;;;;;;;1.33;1.10;;;9.80;99.70;;;;;;5030513;28;21002;-67
2021/05/05 09:01:15;;;;;;;2.13;1.27;;;9.70;99.70;;;;;;5030215;28;20444;-68
2021/05/05 09:03:43;;;;;;;2.57;1.43;;;9.80;99.70;;;;;;5030198;28;20831;-68
2021/05/05 09:06:09;;;;;;;1.90;1.40;;;9.70;99.20;;;;;;5031497;28;20452;-67
2021/05/05 09:08:36;;;;;;;2.80;1.40;;;9.90;98.80;;;;;;5034062;28;20460;-69
2021/05/05 09:11:04;;;;;;;2.47;1.33;;;10.10;99.50;;;;;;5034304;28;20445;-69
2021/05/05 09:13:44;;;;;;;1.70;1.40;;;10.50;99.50;;;;;;5030573;28;20469;-69
2021/05/05 09:16:12;;;;;;;1.70;1.10;;;10.40;95.90;;;;;;5014444;28;20447;-69
2021/05/05 09:19:00;;;;;;;4.23;1.20;;;10.40;97.30;;;;;;5028884;28;20834;-69
2021/05/05 09:21:28;;;;;;;1.27;0.97;;;10.40;96.80;;;;;;5034573;28;20452;-69
2021/05/05 09:24:13;;;;;;;1.83;1.23;;;10.50;94.50;;;;;;5025288;28;20511;-69
2021/05/05 09:26:40;;;;;;;1.40;1.30;;;10.60;97.60;;;;;;5014419;28;20831;-69
2021/05/05 09:29:06;;;;;;;1.30;1.10;;;10.50;94.60;;;;;;5024413;28;20448;-69
2021/05/05 09:31:33;;;;;;;2.67;1.47;;;10.50;93.10;;;;;;5033459;28;20466;-69
2021/05/05 09:34:01;;;;;;;2.90;1.40;;;10.90;94.00;;;;;;5033549;28;20546;-68
2021/05/05 09:36:27;;;;;;;1.63;1.10;;;11.50;92.90;;;;;;5033013;28;20849;-69
2021/05/05 09:38:53;;;;;;;2.27;1.60;;;11.70;91.40;;;;;;5033640;28;20448;-68
2021/05/05 09:41:21;;;;;;;1.60;1.20;;;12.10;94.50;;;;;;5021027;28;20457;-69
2021/05/05 09:43:49;;;;;;;1.80;1.23;;;12.50;90.50;;;;;;5026476;28;20560;-70
2021/05/05 09:46:40;;;;;;;2.33;1.63;;;11.60;93.00;;;;;;5022431;28;20917;-69
2021/05/05 09:49:22;;;;;;;1.70;1.30;;;11.40;93.60;;;;;;5032403;28;20448;-68
2021/05/05 09:51:49;;;;;;;5.03;1.27;;;11.80;95.30;;;;;;5033245;28;20881;-69
2021/05/05 09:54:28;;;;;;;1.90;1.30;;;12.40;91.40;;;;;;5032453;28;20464;-69
2021/05/05 09:56:55;;;;;;;2.70;1.50;;;13.10;89.40;;;;;;5033261;28;20854;-69
2021/05/05 09:59:22;;;;;;;2.13;1.30;;;13.90;86.00;;;;;;5033431;28;20451;-69
2021/05/05 10:02:02;;;;;;;1.97;1.40;;;14.40;85.00;;;;;;5033116;28;20448;-69
2021/05/05 10:04:30;;;;;;;2.40;1.30;;;13.30;85.00;;;;;;5031609;28;20464;-69
2021/05/05 10:07:00;;;;;;;2.73;1.20;;;13.70;88.50;;;;;;5033460;28;20480;-68
2021/05/05 10:09:27;;;;;;;2.73;1.20;;;12.90;83.30;;;;;;5032701;28;20535;-69
2021/05/05 10:11:55;;;;;;;1.70;1.27;;;11.80;85.30;;;;;;5032764;28;20804;-69
2021/05/05 10:14:22;;;;;;;1.70;1.23;;;11.80;89.00;;;;;;5042191;22;20459;-68
2021/05/05 10:16:50;;;;;;;1.97;1.10;;;11.80;88.60;;;;;;5048749;28;20456;-68
2021/05/05 10:19:19;;;;;;;2.10;1.30;;;12.00;88.90;;;;;;5052417;28;20464;-69
2021/05/05 10:21:50;;;;;;;1.73;1.20;;;12.20;89.20;;;;;;5051565;28;20819;-68
2021/05/05 10:24:17;;;;;;;2.73;1.50;;;12.50;87.70;;;;;;5047489;28;20444;-68
2021/05/05 10:26:44;;;;;;;1.40;1.10;;;12.20;87.20;;;;;;5040898;28;20507;-68
2021/05/05 10:29:11;;;;;;;1.30;1.00;;;12.40;88.50;;;;;;5028216;28;20560;-67
2021/05/05 10:31:39;;;;;;;1.93;1.23;;;12.00;86.30;;;;;;5031671;28;20490;-68
2021/05/05 10:34:15;;;;;;;1.43;1.10;;;11.90;84.40;;;;;;5051880;28;20484;-69
2021/05/05 10:36:46;;;;;;;1.60;1.10;;;11.70;85.40;;;;;;5031002;28;20464;-69
2021/05/05 10:39:32;;;;;;;1.53;1.10;;;11.60;87.00;;;;;;5051616;28;20452;-69
2021/05/05 10:42:05;;;;;;;1.77;1.30;;;11.90;87.90;;;;;;5026169;28;20511;-68
2021/05/05 10:44:36;;;;;;;1.80;1.10;;;12.10;88.00;;;;;;5026766;28;20476;-68
2021/05/05 10:47:23;;;;;;;1.23;1.00;;;12.10;86.70;;;;;;5044486;28;21002;-68
2021/05/05 10:50:05;;;;;;;2.13;1.30;;;12.10;86.40;;;;;;5031290;28;20483;-69
2021/05/05 10:53:05;;;;;;;2.97;1.20;;;11.90;85.00;;;;;;5037565;28;20459;-67
2021/05/05 10:55:40;;;;;;;2.43;1.33;;;12.30;84.90;;;;;;5049743;28;20475;-69
2021/05/05 10:58:09;;;;;;;2.13;1.00;;;12.20;85.30;;;;;;5051775;28;20906;-68
2021/05/05 11:00:46;;;;;;;1.97;1.10;;;11.90;84.60;;;;;;5041588;28;20794;-68
2021/05/05 11:03:13;;;;;;;1.30;1.00;;;11.50;84.50;;;;;;5035271;28;20510;-68
2021/05/05 11:05:41;;;;;;;1.90;1.10;;;11.20;85.90;;;;;;5031495;28;20515;-68
2021/05/05 11:08:10;;;;;;;1.70;1.00;;;10.80;88.90;;;;;;5031486;28;20567;-68
2021/05/05 11:10:54;;;;;;;1.23;0.97;;;9.40;99.70;;;;;;5029928;28;20448;-68
2021/05/05 11:13:42;;;;;;;1.20;0.90;;;8.50;99.70;;;;;;5028653;28;20451;-68
2021/05/05 11:16:09;;;;;;;2.07;1.07;;;8.00;99.70;;;;;;5029928;28;20995;-68
2021/05/05 11:18:46;;;;;;;1.20;0.90;;;7.80;99.70;;;;;;5044601;28;20449;-68
2021/05/05 11:21:41;;;;;;;1.20;0.80;;;7.40;99.70;;;;;;5030552;28;20444;-68
2021/05/05 11:24:31;;;;;;;1.30;1.00;;;7.60;99.70;;;;;;5030434;28;20460;-68
2021/05/05 11:27:02;;;;;;;1.30;1.00;;;8.00;99.70;;;;;;5031162;28;20517;-69
2021/05/05 11:29:40;;;;;;;1.40;1.00;;;7.90;99.70;;;;;;5031443;28;20940;-68
2021/05/05 11:32:13;;;;;;;1.30;1.00;;;7.90;99.70;;;;;;5037868;28;20497;-69
2021/05/05 11:34:42;;;;;;;1.50;1.00;;;7.90;99.70;;;;;;5042799;28;20480;-69
2021/05/05 11:37:13;;;;;;;1.50;0.97;;;7.60;99.70;;;;;;5031183;28;20445;-69
2021/05/05 11:39:41;;;;;;;1.30;0.90;;;7.70;99.70;;;;;;5036532;28;20480;-68
2021/05/05 11:42:11;;;;;;;1.20;0.90;;;7.90;99.70;;;;;;5051173;28;20439;-68
2021/05/05 11:44:40;;;;;;;1.40;1.10;;;8.10;99.70;;;;;;5030229;28;20500;-69
2021/05/05 11:47:08;;;;;;;1.90;1.10;;;8.10;99.70;;;;;;5028518;28;20690;-68
2021/05/05 11:49:36;;;;;;;1.70;1.00;;;8.30;99.70;;;;;;5031371;28;20860;-69
2021/05/05 11:52:22;;;;;;;2.23;1.20;;;8.30;99.70;;;;;;5031903;28;20881;-70
2021/05/05 11:54:49;;;;;;;1.30;1.10;;;8.40;99.70;;;;;;5036184;28;20461;-67
2021/05/05 11:57:17;;;;;;;1.57;1.00;;;8.40;99.70;;;;;;5030188;28;20448;-69
2021/05/05 11:59:44;;;;;;;1.30;0.90;;;8.20;99.70;;;;;;5036440;28;20874;-67
2021/05/05 12:02:11;;;;;;;1.57;1.00;;;8.80;99.70;;;;;;5050268;28;20444;-67
2021/05/05 12:04:40;;;;;;;1.20;0.87;;;9.10;99.70;;;;;;5010273;28;20488;-67
2021/05/05 12:07:07;;;;;;;2.37;1.10;;;9.20;99.70;;;;;;5010505;28;20481;-67
2021/05/05 12:09:35;;;;;;;1.47;1.10;;;9.20;99.70;;;;;;5029422;28;20444;-69
2021/05/05 12:12:23;;;;;;;1.30;1.00;;;9.20;99.70;;;;;;5026170;28;20457;-69
2021/05/05 12:14:52;;;;;;;1.60;1.17;;;9.20;99.70;;;;;;5028213;28;20865;-67
2021/05/05 12:17:27;;;;;;;1.20;0.90;;;9.30;99.70;;;;;;5030250;28;20997;-67
2021/05/05 12:19:59;;;;;;;1.40;1.37;;;9.20;99.70;;;;;;5038553;28;20463;-67
2021/05/05 12:22:27;;;;;;;3.20;1.20;;;9.70;99.70;;;;;;5034736;28;20469;-69
2021/05/05 12:25:12;;;;;;;1.60;1.00;;;9.60;99.70;;;;;;5030977;28;20472;-67
2021/05/05 12:27:55;;;;;;;1.50;1.00;;;9.70;99.70;;;;;;5013844;28;20488;-68
2021/05/05 12:30:21;;;;;;;1.60;1.00;;;9.60;99.70;;;;;;5032220;28;20448;-67
2021/05/05 12:32:49;;;;;;;1.27;0.87;;;10.00;99.70;;;;;;5049474;28;20452;-67
2021/05/05 12:35:21;;;;;;;1.30;1.00;;;10.10;99.70;;;;;;5049648;28;20471;-68
2021/05/05 12:37:48;;;;;;;1.33;1.00;;;10.20;99.70;;;;;;5046803;28;20440;-67
2021/05/05 12:40:14;;;;;;;1.50;1.00;;;10.40;99.70;;;;;;5032413;28;20901;-67
2021/05/05 12:42:42;;;;;;;3.63;2.13;;;10.30;98.60;;;;;;5035496;28;20451;-68
2021/05/05 12:45:11;;;;;;;1.87;1.03;;;10.30;99.70;;;;;;5032372;28;20465;-68
2021/05/05 12:47:37;;;;;;;1.67;1.10;;;10.10;99.20;;;;;;5035168;28;20484;-68
2021/05/05 12:50:06;;;;;;;2.03;1.10;;;10.30;99.40;;;;;;5035277;28;20456;-68
2021/05/05 12:52:36;;;;;;;1.20;1.00;;;10.30;99.70;;;;;;5041809;28;20451;-67
2021/05/05 12:55:24;;;;;;;1.40;1.10;;;10.20;98.50;;;;;;5036467;28;20530;-68
2021/05/05 12:58:02;;;;;;;1.40;1.10;;;10.00;96.90;;;;;;5036540;28;20440;-67
2021/05/05 13:00:29;;;;;;;2.30;1.00;;;9.70;95.30;;;;;;5036503;28;20904;-68
2021/05/05 13:03:07;;;;;;;1.50;1.00;;;9.60;96.20;;;;;;5036365;28;20448;-67
2021/05/05 13:05:53;;;;;;;1.30;0.90;;;9.70;99.00;;;;;;5016821;28;20465;-67